sensor_id;sensor_type;location;lat;lon;timestamp;temperature;humidity
3550;DHT22;45572;48.804;8.330;2022-08-19T00:02:18;21.20;88.90
3550;DHT22;45572;48.804;8.330;2022-08-19T00:04:46;21.20;89.00
3550;DHT22;45572;48.804;8.330;2022-08-19T00:07:19;21.20;89.20
3550;DHT22;45572;48.804;8.330;2022-08-19T00:09:46;21.20;89.30
3550;DHT22;45572;48.804;8.330;2022-08-19T00:12:14;21.20;89.30
3550;DHT22;45572;48.804;8.330;2022-08-19T00:14:42;21.20;89.30
3550;DHT22;45572;48.804;8.330;2022-08-19T00:17:10;21.20;89.40
3550;DHT22;45572;48.804;8.330;2022-08-19T00:19:39;21.20;89.10
3550;DHT22;45572;48.804;8.330;2022-08-19T00:22:07;21.30;89.10
3550;DHT22;45572;48.804;8.330;2022-08-19T00:24:35;21.40;89.00
3550;DHT22;45572;48.804;8.330;2022-08-19T00:27:05;21.30;89.10
3550;DHT22;45572;48.804;8.330;2022-08-19T00:29:52;21.30;89.10
3550;DHT22;45572;48.804;8.330;2022-08-19T00:32:20;21.10;89.70
3550;DHT22;45572;48.804;8.330;2022-08-19T00:34:51;21.00;90.10
3550;DHT22;45572;48.804;8.330;2022-08-19T00:37:20;21.10;89.90
3550;DHT22;45572;48.804;8.330;2022-08-19T00:39:49;21.10;89.60
3550;DHT22;45572;48.804;8.330;2022-08-19T00:42:18;21.10;89.80
3550;DHT22;45572;48.804;8.330;2022-08-19T00:44:46;21.00;90.10
3550;DHT22;45572;48.804;8.330;2022-08-19T00:47:14;21.00;90.10
3550;DHT22;45572;48.804;8.330;2022-08-19T00:49:46;21.10;89.80
3550;DHT22;45572;48.804;8.330;2022-08-19T00:52:21;21.10;89.50
3550;DHT22;45572;48.804;8.330;2022-08-19T00:54:50;21.20;89.60
3550;DHT22;45572;48.804;8.330;2022-08-19T00:57:24;21.20;89.40
3550;DHT22;45572;48.804;8.330;2022-08-19T00:59:55;21.20;89.30
3550;DHT22;45572;48.804;8.330;2022-08-19T01:02:29;21.30;89.30
3550;DHT22;45572;48.804;8.330;2022-08-19T01:04:58;21.30;89.10
3550;DHT22;45572;48.804;8.330;2022-08-19T01:07:28;21.30;89.10
3550;DHT22;45572;48.804;8.330;2022-08-19T01:10:05;21.40;89.10
3550;DHT22;45572;48.804;8.330;2022-08-19T01:12:34;21.40;88.80
3550;DHT22;45572;48.804;8.330;2022-08-19T01:15:03;21.50;88.70
3550;DHT22;45572;48.804;8.330;2022-08-19T01:17:31;21.50;88.70
3550;DHT22;45572;48.804;8.330;2022-08-19T01:19:59;21.50;88.50
3550;DHT22;45572;48.804;8.330;2022-08-19T01:22:30;21.40;88.50
3550;DHT22;45572;48.804;8.330;2022-08-19T01:25:00;21.40;88.50
3550;DHT22;45572;48.804;8.330;2022-08-19T01:27:39;21.30;88.70
3550;DHT22;45572;48.804;8.330;2022-08-19T01:30:11;21.30;88.90
3550;DHT22;45572;48.804;8.330;2022-08-19T01:32:39;21.20;89.20
3550;DHT22;45572;48.804;8.330;2022-08-19T01:35:07;21.10;89.50
3550;DHT22;45572;48.804;8.330;2022-08-19T01:37:45;21.00;90.00
3550;DHT22;45572;48.804;8.330;2022-08-19T01:40:13;21.10;89.80
3550;DHT22;45572;48.804;8.330;2022-08-19T01:42:41;21.10;89.20
3550;DHT22;45572;48.804;8.330;2022-08-19T01:45:09;21.20;89.10
3550;DHT22;45572;48.804;8.330;2022-08-19T01:47:37;21.20;89.00
3550;DHT22;45572;48.804;8.330;2022-08-19T01:50:07;21.20;89.00
3550;DHT22;45572;48.804;8.330;2022-08-19T01:52:35;21.20;89.20
3550;DHT22;45572;48.804;8.330;2022-08-19T01:55:08;21.20;89.40
3550;DHT22;45572;48.804;8.330;2022-08-19T01:57:37;21.20;89.20
3550;DHT22;45572;48.804;8.330;2022-08-19T02:00:11;21.30;89.00
3550;DHT22;45572;48.804;8.330;2022-08-19T02:02:41;21.30;88.60
3550;DHT22;45572;48.804;8.330;2022-08-19T02:05:10;21.30;88.80
3550;DHT22;45572;48.804;8.330;2022-08-19T02:07:39;21.30;88.80
3550;DHT22;45572;48.804;8.330;2022-08-19T02:10:13;21.20;88.90
3550;DHT22;45572;48.804;8.330;2022-08-19T02:12:42;21.10;89.20
3550;DHT22;45572;48.804;8.330;2022-08-19T02:15:10;21.10;89.70
3550;DHT22;45572;48.804;8.330;2022-08-19T02:17:39;21.00;89.80
3550;DHT22;45572;48.804;8.330;2022-08-19T02:20:08;21.00;90.00
3550;DHT22;45572;48.804;8.330;2022-08-19T02:22:36;21.00;89.90
3550;DHT22;45572;48.804;8.330;2022-08-19T02:25:04;21.00;89.80
3550;DHT22;45572;48.804;8.330;2022-08-19T02:27:33;21.00;89.80
3550;DHT22;45572;48.804;8.330;2022-08-19T02:30:01;21.00;89.90
3550;DHT22;45572;48.804;8.330;2022-08-19T02:32:31;21.00;89.90
3550;DHT22;45572;48.804;8.330;2022-08-19T02:35:10;20.90;90.00
3550;DHT22;45572;48.804;8.330;2022-08-19T02:37:38;20.90;90.30
3550;DHT22;45572;48.804;8.330;2022-08-19T02:40:20;20.90;90.30
3550;DHT22;45572;48.804;8.330;2022-08-19T02:42:49;20.90;90.60
3550;DHT22;45572;48.804;8.330;2022-08-19T02:45:17;21.00;90.30
3550;DHT22;45572;48.804;8.330;2022-08-19T02:47:45;21.00;90.50
3550;DHT22;45572;48.804;8.330;2022-08-19T02:50:13;20.80;90.60
3550;DHT22;45572;48.804;8.330;2022-08-19T02:52:41;20.70;91.20
3550;DHT22;45572;48.804;8.330;2022-08-19T02:55:09;20.90;90.60
3550;DHT22;45572;48.804;8.330;2022-08-19T02:57:37;21.00;90.40
3550;DHT22;45572;48.804;8.330;2022-08-19T03:00:08;21.00;90.30
3550;DHT22;45572;48.804;8.330;2022-08-19T03:02:38;21.00;90.30
3550;DHT22;45572;48.804;8.330;2022-08-19T03:05:08;21.00;90.20
3550;DHT22;45572;48.804;8.330;2022-08-19T03:07:37;21.00;90.30
3550;DHT22;45572;48.804;8.330;2022-08-19T03:10:05;21.10;90.20
3550;DHT22;45572;48.804;8.330;2022-08-19T03:12:36;21.10;90.10
3550;DHT22;45572;48.804;8.330;2022-08-19T03:15:07;21.10;90.20
3550;DHT22;45572;48.804;8.330;2022-08-19T03:17:35;21.10;90.30
3550;DHT22;45572;48.804;8.330;2022-08-19T03:20:04;21.20;90.00
3550;DHT22;45572;48.804;8.330;2022-08-19T03:22:32;21.30;89.80
3550;DHT22;45572;48.804;8.330;2022-08-19T03:25:00;21.40;89.50
3550;DHT22;45572;48.804;8.330;2022-08-19T03:27:28;21.40;89.30
3550;DHT22;45572;48.804;8.330;2022-08-19T03:30:00;21.40;89.20
3550;DHT22;45572;48.804;8.330;2022-08-19T03:32:30;21.20;89.50
3550;DHT22;45572;48.804;8.330;2022-08-19T03:34:59;21.00;90.40
3550;DHT22;45572;48.804;8.330;2022-08-19T03:37:27;21.00;90.70
3550;DHT22;45572;48.804;8.330;2022-08-19T03:39:55;21.00;90.60
3550;DHT22;45572;48.804;8.330;2022-08-19T03:42:23;21.10;90.20
3550;DHT22;45572;48.804;8.330;2022-08-19T03:45:11;21.10;90.40
3550;DHT22;45572;48.804;8.330;2022-08-19T03:47:40;21.10;90.40
3550;DHT22;45572;48.804;8.330;2022-08-19T03:50:08;21.10;90.50
3550;DHT22;45572;48.804;8.330;2022-08-19T03:52:37;21.10;90.30
3550;DHT22;45572;48.804;8.330;2022-08-19T03:55:11;21.20;90.20
3550;DHT22;45572;48.804;8.330;2022-08-19T03:57:38;21.20;90.00
3550;DHT22;45572;48.804;8.330;2022-08-19T04:00:07;21.20;89.90
3550;DHT22;45572;48.804;8.330;2022-08-19T04:02:41;21.20;89.90
3550;DHT22;45572;48.804;8.330;2022-08-19T04:05:25;21.20;90.10
3550;DHT22;45572;48.804;8.330;2022-08-19T04:07:55;21.10;90.50
3550;DHT22;45572;48.804;8.330;2022-08-19T04:10:25;21.10;90.40
3550;DHT22;45572;48.804;8.330;2022-08-19T04:12:54;21.10;90.60
3550;DHT22;45572;48.804;8.330;2022-08-19T04:15:21;21.10;90.70
3550;DHT22;45572;48.804;8.330;2022-08-19T04:17:50;21.00;90.70
3550;DHT22;45572;48.804;8.330;2022-08-19T04:20:18;21.00;90.60
3550;DHT22;45572;48.804;8.330;2022-08-19T04:22:46;21.00;90.80
3550;DHT22;45572;48.804;8.330;2022-08-19T04:25:14;21.00;90.70
3550;DHT22;45572;48.804;8.330;2022-08-19T04:27:42;20.90;91.00
3550;DHT22;45572;48.804;8.330;2022-08-19T04:30:13;20.90;91.00
3550;DHT22;45572;48.804;8.330;2022-08-19T04:32:41;21.00;91.20
3550;DHT22;45572;48.804;8.330;2022-08-19T04:35:11;20.90;91.20
3550;DHT22;45572;48.804;8.330;2022-08-19T04:37:44;20.90;91.10
3550;DHT22;45572;48.804;8.330;2022-08-19T04:40:12;21.00;91.00
3550;DHT22;45572;48.804;8.330;2022-08-19T04:42:53;21.00;90.90
3550;DHT22;45572;48.804;8.330;2022-08-19T04:45:22;20.80;91.40
3550;DHT22;45572;48.804;8.330;2022-08-19T04:47:54;20.90;91.40
3550;DHT22;45572;48.804;8.330;2022-08-19T04:50:45;21.00;91.30
3550;DHT22;45572;48.804;8.330;2022-08-19T04:53:12;21.00;91.20
3550;DHT22;45572;48.804;8.330;2022-08-19T04:55:41;21.00;91.20
3550;DHT22;45572;48.804;8.330;2022-08-19T04:58:09;21.00;91.20
3550;DHT22;45572;48.804;8.330;2022-08-19T05:00:38;21.10;91.30
3550;DHT22;45572;48.804;8.330;2022-08-19T05:03:06;21.10;91.00
3550;DHT22;45572;48.804;8.330;2022-08-19T05:05:39;20.80;91.70
3550;DHT22;45572;48.804;8.330;2022-08-19T05:08:13;20.80;92.00
3550;DHT22;45572;48.804;8.330;2022-08-19T05:10:57;20.90;91.70
3550;DHT22;45572;48.804;8.330;2022-08-19T05:13:25;21.00;91.60
3550;DHT22;45572;48.804;8.330;2022-08-19T05:15:55;21.00;91.60
3550;DHT22;45572;48.804;8.330;2022-08-19T05:18:23;20.80;92.30
3550;DHT22;45572;48.804;8.330;2022-08-19T05:21:06;21.00;91.90
3550;DHT22;45572;48.804;8.330;2022-08-19T05:23:49;21.10;91.50
3550;DHT22;45572;48.804;8.330;2022-08-19T05:26:17;21.30;91.30
3550;DHT22;45572;48.804;8.330;2022-08-19T05:28:45;21.40;90.80
3550;DHT22;45572;48.804;8.330;2022-08-19T05:31:13;21.50;90.60
3550;DHT22;45572;48.804;8.330;2022-08-19T05:33:40;21.40;90.70
3550;DHT22;45572;48.804;8.330;2022-08-19T05:36:08;21.50;90.40
3550;DHT22;45572;48.804;8.330;2022-08-19T05:38:36;21.60;90.00
3550;DHT22;45572;48.804;8.330;2022-08-19T05:41:08;21.60;90.00
3550;DHT22;45572;48.804;8.330;2022-08-19T05:43:37;21.70;90.00
3550;DHT22;45572;48.804;8.330;2022-08-19T05:46:05;21.70;90.00
3550;DHT22;45572;48.804;8.330;2022-08-19T05:48:34;21.80;89.90
3550;DHT22;45572;48.804;8.330;2022-08-19T05:51:05;21.80;89.80
3550;DHT22;45572;48.804;8.330;2022-08-19T05:53:35;21.90;89.90
3550;DHT22;45572;48.804;8.330;2022-08-19T05:56:04;22.00;90.00
3550;DHT22;45572;48.804;8.330;2022-08-19T05:58:33;22.10;89.80
3550;DHT22;45572;48.804;8.330;2022-08-19T06:01:01;22.00;89.80
3550;DHT22;45572;48.804;8.330;2022-08-19T06:03:32;22.00;89.90
3550;DHT22;45572;48.804;8.330;2022-08-19T06:06:01;21.90;90.30
3550;DHT22;45572;48.804;8.330;2022-08-19T06:08:29;21.90;90.40
3550;DHT22;45572;48.804;8.330;2022-08-19T06:11:17;21.90;90.30
3550;DHT22;45572;48.804;8.330;2022-08-19T06:13:49;22.00;90.40
3550;DHT22;45572;48.804;8.330;2022-08-19T06:16:25;22.00;90.30
3550;DHT22;45572;48.804;8.330;2022-08-19T06:18:55;22.10;90.10
3550;DHT22;45572;48.804;8.330;2022-08-19T06:21:25;22.20;89.80
3550;DHT22;45572;48.804;8.330;2022-08-19T06:23:55;22.20;89.80
3550;DHT22;45572;48.804;8.330;2022-08-19T06:26:23;22.30;89.70
3550;DHT22;45572;48.804;8.330;2022-08-19T06:28:52;22.30;89.40
3550;DHT22;45572;48.804;8.330;2022-08-19T06:31:24;22.40;89.10
3550;DHT22;45572;48.804;8.330;2022-08-19T06:33:52;22.40;88.90
3550;DHT22;45572;48.804;8.330;2022-08-19T06:36:22;22.50;89.10
3550;DHT22;45572;48.804;8.330;2022-08-19T06:38:54;22.50;89.10
3550;DHT22;45572;48.804;8.330;2022-08-19T06:41:23;22.60;88.70
3550;DHT22;45572;48.804;8.330;2022-08-19T06:43:52;22.70;88.60
3550;DHT22;45572;48.804;8.330;2022-08-19T06:46:22;22.70;88.50
3550;DHT22;45572;48.804;8.330;2022-08-19T06:48:50;22.80;88.00
3550;DHT22;45572;48.804;8.330;2022-08-19T06:51:21;22.80;87.90
3550;DHT22;45572;48.804;8.330;2022-08-19T06:53:52;22.90;87.50
3550;DHT22;45572;48.804;8.330;2022-08-19T06:56:23;22.90;86.40
3550;DHT22;45572;48.804;8.330;2022-08-19T06:58:58;22.90;86.60
3550;DHT22;45572;48.804;8.330;2022-08-19T07:01:26;22.90;87.10
3550;DHT22;45572;48.804;8.330;2022-08-19T07:03:54;23.00;86.90
3550;DHT22;45572;48.804;8.330;2022-08-19T07:06:24;23.00;86.10
3550;DHT22;45572;48.804;8.330;2022-08-19T07:09:11;23.10;85.60
3550;DHT22;45572;48.804;8.330;2022-08-19T07:11:44;23.00;85.10
3550;DHT22;45572;48.804;8.330;2022-08-19T07:14:13;23.10;85.80
3550;DHT22;45572;48.804;8.330;2022-08-19T07:16:46;23.40;85.20
3550;DHT22;45572;48.804;8.330;2022-08-19T07:19:15;23.60;84.60
3550;DHT22;45572;48.804;8.330;2022-08-19T07:21:48;23.90;83.70
3550;DHT22;45572;48.804;8.330;2022-08-19T07:24:17;24.00;82.90
3550;DHT22;45572;48.804;8.330;2022-08-19T07:26:45;24.10;82.00
3550;DHT22;45572;48.804;8.330;2022-08-19T07:29:19;24.20;81.90
3550;DHT22;45572;48.804;8.330;2022-08-19T07:31:51;24.30;81.40
3550;DHT22;45572;48.804;8.330;2022-08-19T07:34:23;24.50;81.50
3550;DHT22;45572;48.804;8.330;2022-08-19T07:36:52;24.80;80.90
3550;DHT22;45572;48.804;8.330;2022-08-19T07:39:22;24.90;79.30
3550;DHT22;45572;48.804;8.330;2022-08-19T07:41:50;25.20;78.90
3550;DHT22;45572;48.804;8.330;2022-08-19T07:44:20;25.40;78.40
3550;DHT22;45572;48.804;8.330;2022-08-19T07:46:53;25.50;75.60
3550;DHT22;45572;48.804;8.330;2022-08-19T07:49:22;25.40;74.70
3550;DHT22;45572;48.804;8.330;2022-08-19T07:51:52;25.30;74.50
3550;DHT22;45572;48.804;8.330;2022-08-19T07:54:22;25.20;75.10
3550;DHT22;45572;48.804;8.330;2022-08-19T07:56:50;25.10;75.80
3550;DHT22;45572;48.804;8.330;2022-08-19T07:59:21;24.90;75.80
3550;DHT22;45572;48.804;8.330;2022-08-19T08:01:49;25.00;76.00
3550;DHT22;45572;48.804;8.330;2022-08-19T08:04:18;25.10;76.50
3550;DHT22;45572;48.804;8.330;2022-08-19T08:07:00;25.20;76.20
3550;DHT22;45572;48.804;8.330;2022-08-19T08:09:43;25.30;77.10
3550;DHT22;45572;48.804;8.330;2022-08-19T08:12:18;25.30;76.10
3550;DHT22;45572;48.804;8.330;2022-08-19T08:15:06;25.50;75.60
3550;DHT22;45572;48.804;8.330;2022-08-19T08:17:38;25.90;75.50
3550;DHT22;45572;48.804;8.330;2022-08-19T08:20:18;26.40;74.60
3550;DHT22;45572;48.804;8.330;2022-08-19T08:22:47;27.30;70.70
3550;DHT22;45572;48.804;8.330;2022-08-19T08:25:30;27.80;70.20
3550;DHT22;45572;48.804;8.330;2022-08-19T08:28:00;28.20;68.60
3550;DHT22;45572;48.804;8.330;2022-08-19T08:30:30;28.20;68.90
3550;DHT22;45572;48.804;8.330;2022-08-19T08:33:00;28.20;67.50
3550;DHT22;45572;48.804;8.330;2022-08-19T08:35:28;28.10;68.80
3550;DHT22;45572;48.804;8.330;2022-08-19T08:37:56;28.10;68.50
3550;DHT22;45572;48.804;8.330;2022-08-19T08:40:28;28.00;68.60
3550;DHT22;45572;48.804;8.330;2022-08-19T08:43:01;28.10;68.10
3550;DHT22;45572;48.804;8.330;2022-08-19T08:45:43;28.50;67.80
3550;DHT22;45572;48.804;8.330;2022-08-19T08:48:24;29.00;66.70
3550;DHT22;45572;48.804;8.330;2022-08-19T08:50:55;30.40;64.00
3550;DHT22;45572;48.804;8.330;2022-08-19T08:53:24;31.20;61.10
3550;DHT22;45572;48.804;8.330;2022-08-19T08:56:03;31.80;58.60
3550;DHT22;45572;48.804;8.330;2022-08-19T08:58:39;31.90;58.90
3550;DHT22;45572;48.804;8.330;2022-08-19T09:01:11;31.80;58.20
3550;DHT22;45572;48.804;8.330;2022-08-19T09:03:42;31.50;60.10
3550;DHT22;45572;48.804;8.330;2022-08-19T09:06:16;31.30;59.70
3550;DHT22;45572;48.804;8.330;2022-08-19T09:08:59;31.20;60.30
3550;DHT22;45572;48.804;8.330;2022-08-19T09:11:50;30.80;60.30
3550;DHT22;45572;48.804;8.330;2022-08-19T09:14:32;30.40;61.30
3550;DHT22;45572;48.804;8.330;2022-08-19T09:17:22;30.10;61.40
3550;DHT22;45572;48.804;8.330;2022-08-19T09:19:59;29.80;63.40
3550;DHT22;45572;48.804;8.330;2022-08-19T09:22:31;29.50;62.90
3550;DHT22;45572;48.804;8.330;2022-08-19T09:24:59;29.50;63.70
3550;DHT22;45572;48.804;8.330;2022-08-19T09:27:28;29.90;63.00
3550;DHT22;45572;48.804;8.330;2022-08-19T09:30:13;30.20;62.60
3550;DHT22;45572;48.804;8.330;2022-08-19T09:32:43;30.60;60.80
3550;DHT22;45572;48.804;8.330;2022-08-19T09:35:13;30.40;61.40
3550;DHT22;45572;48.804;8.330;2022-08-19T09:37:42;30.50;60.50
3550;DHT22;45572;48.804;8.330;2022-08-19T09:40:11;31.20;59.80
3550;DHT22;45572;48.804;8.330;2022-08-19T09:42:41;32.20;56.50
3550;DHT22;45572;48.804;8.330;2022-08-19T09:45:19;33.10;54.90
3550;DHT22;45572;48.804;8.330;2022-08-19T09:47:51;33.30;54.00
3550;DHT22;45572;48.804;8.330;2022-08-19T09:50:22;33.80;53.80
3550;DHT22;45572;48.804;8.330;2022-08-19T09:52:51;33.80;52.60
3550;DHT22;45572;48.804;8.330;2022-08-19T09:55:24;33.80;51.60
3550;DHT22;45572;48.804;8.330;2022-08-19T09:58:00;33.10;52.70
3550;DHT22;45572;48.804;8.330;2022-08-19T10:00:28;32.60;54.20
3550;DHT22;45572;48.804;8.330;2022-08-19T10:02:58;32.20;54.40
3550;DHT22;45572;48.804;8.330;2022-08-19T10:05:26;31.60;55.30
3550;DHT22;45572;48.804;8.330;2022-08-19T10:08:09;31.20;56.90
3550;DHT22;45572;48.804;8.330;2022-08-19T10:10:39;30.80;58.40
3550;DHT22;45572;48.804;8.330;2022-08-19T10:13:12;30.40;58.30
3550;DHT22;45572;48.804;8.330;2022-08-19T10:15:40;29.70;59.10
3550;DHT22;45572;48.804;8.330;2022-08-19T10:18:15;29.50;60.90
3550;DHT22;45572;48.804;8.330;2022-08-19T10:20:45;29.20;60.40
3550;DHT22;45572;48.804;8.330;2022-08-19T10:23:18;29.00;61.60
3550;DHT22;45572;48.804;8.330;2022-08-19T10:25:47;28.70;63.00
3550;DHT22;45572;48.804;8.330;2022-08-19T10:28:15;28.70;63.50
3550;DHT22;45572;48.804;8.330;2022-08-19T10:30:45;28.90;63.10
3550;DHT22;45572;48.804;8.330;2022-08-19T10:33:15;28.90;63.20
3550;DHT22;45572;48.804;8.330;2022-08-19T10:36:05;28.60;63.50
3550;DHT22;45572;48.804;8.330;2022-08-19T10:38:34;28.20;63.50
3550;DHT22;45572;48.804;8.330;2022-08-19T10:41:07;28.00;63.80
3550;DHT22;45572;48.804;8.330;2022-08-19T10:43:36;28.00;64.20
3550;DHT22;45572;48.804;8.330;2022-08-19T10:46:05;28.10;65.90
3550;DHT22;45572;48.804;8.330;2022-08-19T10:48:42;28.40;64.70
3550;DHT22;45572;48.804;8.330;2022-08-19T10:51:11;29.10;63.40
3550;DHT22;45572;48.804;8.330;2022-08-19T10:53:54;30.40;59.30
3550;DHT22;45572;48.804;8.330;2022-08-19T10:56:23;31.70;56.70
3550;DHT22;45572;48.804;8.330;2022-08-19T10:59:05;32.70;54.10
3550;DHT22;45572;48.804;8.330;2022-08-19T11:01:34;32.60;53.30
3550;DHT22;45572;48.804;8.330;2022-08-19T11:04:04;32.40;52.10
3550;DHT22;45572;48.804;8.330;2022-08-19T11:06:36;32.10;53.00
3550;DHT22;45572;48.804;8.330;2022-08-19T11:09:05;32.20;52.10
3550;DHT22;45572;48.804;8.330;2022-08-19T11:11:33;32.20;53.00
3550;DHT22;45572;48.804;8.330;2022-08-19T11:14:07;33.10;52.20
3550;DHT22;45572;48.804;8.330;2022-08-19T11:16:36;34.20;49.60
3550;DHT22;45572;48.804;8.330;2022-08-19T11:19:08;35.10;48.00
3550;DHT22;45572;48.804;8.330;2022-08-19T11:21:38;35.30;47.60
3550;DHT22;45572;48.804;8.330;2022-08-19T11:24:08;34.60;47.50
3550;DHT22;45572;48.804;8.330;2022-08-19T11:26:38;33.80;49.00
3550;DHT22;45572;48.804;8.330;2022-08-19T11:29:08;33.20;50.60
3550;DHT22;45572;48.804;8.330;2022-08-19T11:31:40;32.70;51.20
3550;DHT22;45572;48.804;8.330;2022-08-19T11:34:12;32.70;51.90
3550;DHT22;45572;48.804;8.330;2022-08-19T11:36:41;32.90;51.00
3550;DHT22;45572;48.804;8.330;2022-08-19T11:39:13;32.80;51.60
3550;DHT22;45572;48.804;8.330;2022-08-19T11:41:41;32.60;51.30
3550;DHT22;45572;48.804;8.330;2022-08-19T11:44:09;32.00;53.10
3550;DHT22;45572;48.804;8.330;2022-08-19T11:46:37;31.60;53.90
3550;DHT22;45572;48.804;8.330;2022-08-19T11:49:06;31.50;53.60
3550;DHT22;45572;48.804;8.330;2022-08-19T11:51:41;31.70;54.00
3550;DHT22;45572;48.804;8.330;2022-08-19T11:54:11;32.50;53.60
3550;DHT22;45572;48.804;8.330;2022-08-19T11:56:39;33.00;53.30
3550;DHT22;45572;48.804;8.330;2022-08-19T11:59:08;33.20;51.50
3550;DHT22;45572;48.804;8.330;2022-08-19T12:01:41;33.10;50.70
3550;DHT22;45572;48.804;8.330;2022-08-19T12:04:10;32.80;51.50
3550;DHT22;45572;48.804;8.330;2022-08-19T12:06:39;32.40;51.90
3550;DHT22;45572;48.804;8.330;2022-08-19T12:09:09;31.60;53.50
3550;DHT22;45572;48.804;8.330;2022-08-19T12:11:38;31.20;54.20
3550;DHT22;45572;48.804;8.330;2022-08-19T12:14:09;30.60;54.80
3550;DHT22;45572;48.804;8.330;2022-08-19T12:16:40;30.10;57.10
3550;DHT22;45572;48.804;8.330;2022-08-19T12:19:18;30.10;57.20
3550;DHT22;45572;48.804;8.330;2022-08-19T12:21:49;29.90;57.80
3550;DHT22;45572;48.804;8.330;2022-08-19T12:24:18;30.10;56.50
3550;DHT22;45572;48.804;8.330;2022-08-19T12:26:49;29.90;57.40
3550;DHT22;45572;48.804;8.330;2022-08-19T12:29:20;30.00;57.90
3550;DHT22;45572;48.804;8.330;2022-08-19T12:31:50;30.00;57.50
3550;DHT22;45572;48.804;8.330;2022-08-19T12:34:17;30.30;57.50
3550;DHT22;45572;48.804;8.330;2022-08-19T12:36:46;30.40;57.50
3550;DHT22;45572;48.804;8.330;2022-08-19T12:39:15;30.20;56.80
3550;DHT22;45572;48.804;8.330;2022-08-19T12:41:45;29.70;58.30
3550;DHT22;45572;48.804;8.330;2022-08-19T12:44:21;29.30;58.30
3550;DHT22;45572;48.804;8.330;2022-08-19T12:46:57;29.00;58.40
3550;DHT22;45572;48.804;8.330;2022-08-19T12:49:27;28.60;60.70
3550;DHT22;45572;48.804;8.330;2022-08-19T12:52:15;28.50;61.30
3550;DHT22;45572;48.804;8.330;2022-08-19T12:54:50;28.30;61.30
3550;DHT22;45572;48.804;8.330;2022-08-19T12:57:23;28.10;61.40
3550;DHT22;45572;48.804;8.330;2022-08-19T13:00:00;28.10;63.90
3550;DHT22;45572;48.804;8.330;2022-08-19T13:02:31;28.10;63.00
3550;DHT22;45572;48.804;8.330;2022-08-19T13:05:08;28.00;62.80
3550;DHT22;45572;48.804;8.330;2022-08-19T13:07:37;27.70;62.30
3550;DHT22;45572;48.804;8.330;2022-08-19T13:10:06;27.70;64.60
3550;DHT22;45572;48.804;8.330;2022-08-19T13:12:39;27.70;65.80
3550;DHT22;45572;48.804;8.330;2022-08-19T13:15:10;27.50;62.90
3550;DHT22;45572;48.804;8.330;2022-08-19T13:17:41;27.50;64.30
3550;DHT22;45572;48.804;8.330;2022-08-19T13:20:11;27.50;64.70
3550;DHT22;45572;48.804;8.330;2022-08-19T13:22:51;27.50;63.10
3550;DHT22;45572;48.804;8.330;2022-08-19T13:25:20;27.60;64.50
3550;DHT22;45572;48.804;8.330;2022-08-19T13:27:53;27.90;63.50
3550;DHT22;45572;48.804;8.330;2022-08-19T13:30:22;28.00;64.00
3550;DHT22;45572;48.804;8.330;2022-08-19T13:33:04;28.10;61.90
3550;DHT22;45572;48.804;8.330;2022-08-19T13:35:44;28.10;60.10
3550;DHT22;45572;48.804;8.330;2022-08-19T13:38:14;28.10;59.60
3550;DHT22;45572;48.804;8.330;2022-08-19T13:40:42;28.50;59.40
3550;DHT22;45572;48.804;8.330;2022-08-19T13:43:12;28.90;60.80
3550;DHT22;45572;48.804;8.330;2022-08-19T13:45:50;29.30;60.20
3550;DHT22;45572;48.804;8.330;2022-08-19T13:48:20;29.50;57.60
3550;DHT22;45572;48.804;8.330;2022-08-19T13:50:48;29.60;58.60
3550;DHT22;45572;48.804;8.330;2022-08-19T13:53:16;29.60;57.50
3550;DHT22;45572;48.804;8.330;2022-08-19T13:55:44;29.40;56.10
3550;DHT22;45572;48.804;8.330;2022-08-19T13:58:14;29.30;55.80
3550;DHT22;45572;48.804;8.330;2022-08-19T14:00:44;29.20;56.80
3550;DHT22;45572;48.804;8.330;2022-08-19T14:03:12;29.00;57.30
3550;DHT22;45572;48.804;8.330;2022-08-19T14:05:40;29.10;57.10
3550;DHT22;45572;48.804;8.330;2022-08-19T14:08:07;29.10;57.20
3550;DHT22;45572;48.804;8.330;2022-08-19T14:10:35;29.10;57.00
3550;DHT22;45572;48.804;8.330;2022-08-19T14:13:04;29.20;57.10
3550;DHT22;45572;48.804;8.330;2022-08-19T14:15:33;29.10;56.90
3550;DHT22;45572;48.804;8.330;2022-08-19T14:18:01;29.20;56.90
3550;DHT22;45572;48.804;8.330;2022-08-19T14:20:29;29.10;56.50
3550;DHT22;45572;48.804;8.330;2022-08-19T14:22:56;28.90;56.00
3550;DHT22;45572;48.804;8.330;2022-08-19T14:25:27;29.20;57.60
3550;DHT22;45572;48.804;8.330;2022-08-19T14:27:56;29.20;54.80
3550;DHT22;45572;48.804;8.330;2022-08-19T14:30:26;29.20;55.20
3550;DHT22;45572;48.804;8.330;2022-08-19T14:32:57;29.30;56.40
3550;DHT22;45572;48.804;8.330;2022-08-19T14:35:26;29.50;56.80
3550;DHT22;45572;48.804;8.330;2022-08-19T14:37:54;29.70;55.50
3550;DHT22;45572;48.804;8.330;2022-08-19T14:40:28;29.70;53.40
3550;DHT22;45572;48.804;8.330;2022-08-19T14:42:58;29.60;56.40
3550;DHT22;45572;48.804;8.330;2022-08-19T14:45:31;29.40;54.10
3550;DHT22;45572;48.804;8.330;2022-08-19T14:48:01;29.20;54.40
3550;DHT22;45572;48.804;8.330;2022-08-19T14:50:29;29.00;55.60
3550;DHT22;45572;48.804;8.330;2022-08-19T14:52:58;28.80;55.60
3550;DHT22;45572;48.804;8.330;2022-08-19T14:55:34;28.80;55.70
3550;DHT22;45572;48.804;8.330;2022-08-19T14:58:01;28.80;56.30
3550;DHT22;45572;48.804;8.330;2022-08-19T15:00:34;28.80;55.30
3550;DHT22;45572;48.804;8.330;2022-08-19T15:03:03;29.00;55.50
3550;DHT22;45572;48.804;8.330;2022-08-19T15:05:31;29.00;55.30
3550;DHT22;45572;48.804;8.330;2022-08-19T15:08:03;29.00;55.50
3550;DHT22;45572;48.804;8.330;2022-08-19T15:10:31;29.00;55.70
3550;DHT22;45572;48.804;8.330;2022-08-19T15:12:58;28.90;54.90
3550;DHT22;45572;48.804;8.330;2022-08-19T15:15:26;28.90;55.30
3550;DHT22;45572;48.804;8.330;2022-08-19T15:17:54;28.90;55.00
3550;DHT22;45572;48.804;8.330;2022-08-19T15:20:29;28.90;54.10
3550;DHT22;45572;48.804;8.330;2022-08-19T15:22:58;28.80;55.50
3550;DHT22;45572;48.804;8.330;2022-08-19T15:25:27;28.60;54.40
3550;DHT22;45572;48.804;8.330;2022-08-19T15:27:55;28.40;55.10
3550;DHT22;45572;48.804;8.330;2022-08-19T15:30:25;28.30;55.80
3550;DHT22;45572;48.804;8.330;2022-08-19T15:32:54;28.20;55.30
3550;DHT22;45572;48.804;8.330;2022-08-19T15:35:23;28.00;55.20
3550;DHT22;45572;48.804;8.330;2022-08-19T15:37:53;28.00;56.10
3550;DHT22;45572;48.804;8.330;2022-08-19T15:40:22;27.90;56.70
3550;DHT22;45572;48.804;8.330;2022-08-19T15:42:51;27.80;59.60
3550;DHT22;45572;48.804;8.330;2022-08-19T15:45:21;27.80;58.70
3550;DHT22;45572;48.804;8.330;2022-08-19T15:47:48;27.80;56.70
3550;DHT22;45572;48.804;8.330;2022-08-19T15:50:19;27.70;57.40
3550;DHT22;45572;48.804;8.330;2022-08-19T15:52:49;27.70;57.70
3550;DHT22;45572;48.804;8.330;2022-08-19T15:55:21;27.70;57.30
3550;DHT22;45572;48.804;8.330;2022-08-19T15:58:00;27.60;56.80
3550;DHT22;45572;48.804;8.330;2022-08-19T16:00:53;27.60;57.00
3550;DHT22;45572;48.804;8.330;2022-08-19T16:03:39;27.60;57.30
3550;DHT22;45572;48.804;8.330;2022-08-19T16:06:21;27.50;55.60
3550;DHT22;45572;48.804;8.330;2022-08-19T16:08:52;27.60;57.00
3550;DHT22;45572;48.804;8.330;2022-08-19T16:11:24;27.80;56.20